Terminal Aerodrome Forecast
Issued by NWS Pittsburgh, PA

Current Version | Previous Version | Text Only | Print | Product List | Glossary Off
Versions: 1 2 3 4 5 6 7 8 9 10 11 12 13 14 15 16 17 18 19 20 21 22 23 24 25 26 27 28 29 30 31 32 33 34

000
FTUS41 KPBZ 200255 AAA
TAFPIT
TAF AMD
KPIT 200255Z 2003/2106 00000KT P6SM BKN150
     FM200900 09004KT P6SM VCSH OVC050
     FM201230 13005KT 3SM -RA BR SCT008 OVC010 WS020/18035KT
     FM201600 16006KT 3SM -RA BR BKN008
     FM202000 21008KT P6SM VCSH SCT008 OVC015=

USA.gov is the U.S. government's official web portal to all federal, state and local government web resources and services.